Time;durP1;ratioP1;P1;durP2;ratioP2;P2;SDS_P1;SDS_P2;PMS_P1;PMS_P2;Temp;Humidity;BMP_temperature;BMP_pressure;BME280_temperature;BME280_humidity;BME280_pressure;Samples;Min_cycle;Max_cycle;Signal;HPM_P1;HPM_P2
2023/07/20 00:02:02;;;;;;;0.53;0.37;;;;;;;19.40;70.03;100025.13;5054339;28;20807;-49
2023/07/20 00:04:29;;;;;;;0.50;0.20;;;;;;;19.38;70.21;100027.06;5054291;28;20443;-49
2023/07/20 00:06:55;;;;;;;0.50;0.20;;;;;;;19.30;70.39;100030.28;5054073;28;21054;-49
2023/07/20 00:09:22;;;;;;;0.50;0.20;;;;;;;19.21;70.72;100036.31;5054036;28;20560;-49
2023/07/20 00:11:50;;;;;;;0.50;0.20;;;;;;;18.98;71.77;100028.94;5054247;28;20459;-49
2023/07/20 00:14:18;;;;;;;0.50;0.20;;;;;;;18.86;72.65;100030.59;5054007;28;20489;-49
2023/07/20 00:16:46;;;;;;;0.50;0.20;;;;;;;18.78;72.89;100031.16;5053896;28;20985;-49
2023/07/20 00:19:13;;;;;;;0.50;0.20;;;;;;;18.57;73.91;100029.81;5053967;28;20467;-49
2023/07/20 00:21:40;;;;;;;0.50;0.20;;;;;;;18.49;73.99;100030.31;5053885;28;20504;-48
2023/07/20 00:24:07;;;;;;;0.50;0.20;;;;;;;17.96;76.13;100031.97;5053820;28;20482;-49
2023/07/20 00:26:33;;;;;;;0.50;0.20;;;;;;;17.99;76.33;100029.06;5054037;28;20474;-49
2023/07/20 00:29:00;;;;;;;0.50;0.30;;;;;;;18.03;76.88;100027.91;5053927;28;20473;-49
2023/07/20 00:31:26;;;;;;;0.50;0.20;;;;;;;17.80;77.08;100033.84;5053132;28;20546;-48
2023/07/20 00:33:53;;;;;;;0.50;0.20;;;;;;;17.66;78.18;100032.00;5053695;28;20478;-48
2023/07/20 00:36:19;;;;;;;0.50;0.20;;;;;;;17.85;77.86;100050.59;5053574;28;20475;-49
2023/07/20 00:38:46;;;;;;;0.50;0.20;;;;;;;17.67;78.36;100047.16;5053273;28;20474;-48
2023/07/20 00:41:13;;;;;;;0.50;0.20;;;;;;;17.56;79.11;100049.69;5050715;28;20913;-49
2023/07/20 00:43:39;;;;;;;0.50;0.40;;;;;;;17.25;80.94;100045.28;5040220;28;20455;-49
2023/07/20 00:46:08;;;;;;;0.50;0.20;;;;;;;17.27;80.88;100040.69;5053296;28;21021;-49
2023/07/20 00:48:35;;;;;;;0.50;0.20;;;;;;;17.38;80.23;100046.25;5053211;28;20520;-48
2023/07/20 00:51:02;;;;;;;0.50;0.20;;;;;;;17.03;81.43;100042.16;5053214;28;20546;-49
2023/07/20 00:53:28;;;;;;;0.50;0.20;;;;;;;17.06;81.48;100042.84;5053339;28;20479;-49
2023/07/20 00:55:55;;;;;;;0.50;0.20;;;;;;;16.98;82.10;100047.78;5053474;28;20486;-49
2023/07/20 00:58:23;;;;;;;0.50;0.20;;;;;;;16.96;81.97;100038.09;5047781;28;20485;-48
2023/07/20 01:00:49;;;;;;;0.50;0.20;;;;;;;16.86;82.39;100040.47;5053169;28;20493;-49
2023/07/20 01:03:16;;;;;;;0.50;0.20;;;;;;;16.64;83.38;100042.63;5053080;28;20541;-49
2023/07/20 01:05:59;;;;;;;0.50;0.20;;;;;;;16.61;84.26;100043.66;5052899;28;20443;-49
2023/07/20 01:09:00;;;;;;;0.50;0.20;;;;;;;16.51;84.10;100045.13;5053097;28;20542;-48
2023/07/20 01:11:43;;;;;;;0.50;0.20;;;;;;;16.45;84.71;100042.81;5052887;28;20967;-48
2023/07/20 01:14:11;;;;;;;0.50;0.20;;;;;;;16.40;84.99;100050.25;5052800;28;20493;-49
2023/07/20 01:16:38;;;;;;;0.50;0.20;;;;;;;16.25;85.57;100041.25;5053012;28;20546;-48
2023/07/20 01:19:05;;;;;;;0.50;0.20;;;;;;;16.22;85.72;100042.28;5052888;28;20474;-49
2023/07/20 01:21:39;;;;;;;0.50;0.20;;;;;;;15.90;87.07;100045.88;5052803;28;20462;-48
2023/07/20 01:24:24;;;;;;;0.50;0.20;;;;;;;15.95;87.48;100042.00;5052794;28;20493;-48
2023/07/20 01:27:18;;;;;;;0.50;0.30;;;;;;;15.95;87.07;100041.13;5042062;28;20549;-49
2023/07/20 01:30:01;;;;;;;0.50;0.20;;;;;;;16.02;87.28;100041.63;5052616;28;20553;-50
2023/07/20 01:32:29;;;;;;;0.50;0.20;;;;;;;15.81;87.62;100038.34;5052537;28;20548;-48
2023/07/20 01:34:58;;;;;;;0.50;0.20;;;;;;;15.87;87.73;100038.84;5052365;28;20997;-49
2023/07/20 01:37:29;;;;;;;0.50;0.20;;;;;;;15.99;87.51;100042.69;5052306;28;20482;-48
2023/07/20 01:39:56;;;;;;;0.50;0.20;;;;;;;15.81;87.97;100041.88;5052231;28;20562;-49
2023/07/20 01:42:23;;;;;;;0.50;0.20;;;;;;;15.90;87.95;100043.22;5036513;28;20566;-48
2023/07/20 01:44:51;;;;;;;0.50;0.20;;;;;;;15.84;88.34;100043.53;5041670;28;20546;-48
2023/07/20 01:47:18;;;;;;;1.13;1.13;;;;;;;16.00;87.92;100044.41;5052082;28;20469;-49
2023/07/20 01:49:44;;;;;;;0.50;0.20;;;;;;;16.04;87.49;100039.75;5052440;28;20548;-50
2023/07/20 01:52:11;;;;;;;0.50;0.20;;;;;;;16.13;87.45;100032.06;5052234;28;20538;-48
2023/07/20 01:54:37;;;;;;;0.50;0.20;;;;;;;16.12;87.22;100040.19;5052302;28;20518;-48
2023/07/20 01:57:04;;;;;;;0.50;0.20;;;;;;;16.15;87.29;100038.19;5052116;28;20553;-48
2023/07/20 01:59:30;;;;;;;0.50;0.20;;;;;;;16.05;87.62;100041.50;5052210;28;20557;-48
2023/07/20 02:01:57;;;;;;;0.50;0.20;;;;;;;16.20;86.85;100041.50;5052131;28;20454;-48
2023/07/20 02:04:24;;;;;;;0.50;0.20;;;;;;;15.96;87.53;100034.81;5052365;28;20476;-48
2023/07/20 02:06:50;;;;;;;0.50;0.20;;;;;;;16.02;87.31;100037.13;5052201;28;20500;-48
2023/07/20 02:09:16;;;;;;;0.50;0.20;;;;;;;15.82;89.07;100040.06;5034476;28;20915;-48
2023/07/20 02:11:43;;;;;;;0.50;0.20;;;;;;;16.04;88.45;100045.13;5052156;28;20489;-48
2023/07/20 02:14:09;;;;;;;0.50;0.20;;;;;;;15.60;90.86;100043.88;5052004;28;20497;-48
2023/07/20 02:16:36;;;;;;;0.50;0.20;;;;;;;15.97;89.51;100045.44;5051797;28;20549;-49
2023/07/20 02:19:04;;;;;;;0.50;0.20;;;;;;;15.86;89.64;100036.25;5052184;28;20509;-48
2023/07/20 02:21:30;;;;;;;0.50;0.20;;;;;;;15.83;90.34;100044.47;5052022;28;20482;-49
2023/07/20 02:23:57;;;;;;;0.50;0.20;;;;;;;15.89;89.79;100041.44;5052053;28;20533;-48
2023/07/20 02:26:23;;;;;;;0.50;0.20;;;;;;;15.93;89.67;100046.56;5051856;28;20525;-49
2023/07/20 02:28:50;;;;;;;0.50;0.30;;;;;;;15.91;89.88;100044.94;5051782;28;20471;-48
2023/07/20 02:31:17;;;;;;;0.50;0.20;;;;;;;16.17;88.56;100041.69;5052037;28;20529;-48
2023/07/20 02:33:43;;;;;;;0.50;0.20;;;;;;;15.84;89.82;100044.38;5052091;28;20451;-48
2023/07/20 02:36:10;;;;;;;0.50;0.20;;;;;;;16.02;89.37;100041.63;5051591;28;21066;-48
2023/07/20 02:41:14;;;;;;;0.50;0.20;;;;;;;15.86;90.08;100039.81;4990871;28;20552;-51
2023/07/20 02:43:41;;;;;;;0.50;0.20;;;;;;;15.89;90.01;100030.72;5006023;28;20463;-51
2023/07/20 02:46:07;;;;;;;0.50;0.20;;;;;;;15.57;90.77;100037.78;5000696;28;20456;-51
2023/07/20 02:48:34;;;;;;;0.50;0.20;;;;;;;15.60;90.67;100038.50;5012009;28;20484;-51
2023/07/20 02:51:01;;;;;;;0.50;0.20;;;;;;;15.49;91.47;100040.91;5012292;28;20551;-50
2023/07/20 02:53:27;;;;;;;0.50;0.20;;;;;;;15.37;91.51;100039.72;5011986;28;20543;-51
2023/07/20 02:55:54;;;;;;;0.50;0.20;;;;;;;15.31;92.06;100044.50;5015030;28;20488;-51
2023/07/20 02:58:20;;;;;;;0.50;0.20;;;;;;;15.38;91.78;100036.09;5004719;28;20556;-51
2023/07/20 03:00:47;;;;;;;0.50;0.20;;;;;;;15.35;91.47;100038.03;5015516;28;20472;-51
2023/07/20 03:03:13;;;;;;;0.50;0.20;;;;;;;15.46;91.31;100040.16;5015515;28;20461;-51
2023/07/20 03:05:41;;;;;;;0.50;0.20;;;;;;;15.24;91.62;100041.31;5015718;28;20444;-51
2023/07/20 03:08:08;;;;;;;0.50;0.20;;;;;;;14.88;92.75;100045.84;5015370;28;20965;-51
2023/07/20 03:10:40;;;;;;;0.50;0.20;;;;;;;14.81;93.59;100045.31;5015197;28;20555;-51
2023/07/20 03:13:07;;;;;;;0.50;0.20;;;;;;;14.84;93.29;100042.47;5015165;28;20449;-51
2023/07/20 03:15:34;;;;;;;0.50;0.20;;;;;;;14.86;93.64;100053.09;5013888;28;21051;-51
2023/07/20 03:18:01;;;;;;;0.50;0.20;;;;;;;14.88;93.33;100051.19;5015277;28;20479;-51
2023/07/20 03:20:27;;;;;;;0.50;0.20;;;;;;;14.98;93.03;100050.66;5015212;28;20530;-51
2023/07/20 03:22:54;;;;;;;0.50;0.20;;;;;;;14.85;92.73;100041.53;5015041;28;20468;-51
2023/07/20 03:25:21;;;;;;;0.50;0.20;;;;;;;14.81;92.75;100046.16;5015083;28;20930;-52
2023/07/20 03:27:47;;;;;;;0.47;0.20;;;;;;;14.76;93.11;100055.34;5003308;28;20452;-51
2023/07/20 03:30:14;;;;;;;0.50;0.20;;;;;;;14.73;93.50;100050.16;5014902;28;20561;-51
2023/07/20 03:32:40;;;;;;;0.50;0.20;;;;;;;14.77;93.61;100057.94;5014886;28;20452;-51
2023/07/20 03:35:07;;;;;;;0.50;0.20;;;;;;;14.75;93.30;100065.19;5014951;28;20492;-51
2023/07/20 03:37:35;;;;;;;0.50;0.20;;;;;;;14.72;93.76;100059.13;5014674;28;20440;-50
2023/07/20 03:40:02;;;;;;;0.50;0.20;;;;;;;14.91;93.87;100064.41;5017339;28;20472;-50
2023/07/20 03:42:29;;;;;;;0.50;0.20;;;;;;;14.89;93.65;100064.50;5018714;28;20543;-51
2023/07/20 03:44:56;;;;;;;0.47;0.20;;;;;;;14.87;93.73;100069.06;5025914;28;20558;-51
2023/07/20 03:47:24;;;;;;;0.40;0.20;;;;;;;14.68;95.14;100060.22;5031778;28;20482;-50
2023/07/20 03:49:50;;;;;;;0.50;0.20;;;;;;;14.87;94.14;100054.81;5034286;28;20475;-51
2023/07/20 03:52:17;;;;;;;0.40;0.20;;;;;;;14.78;94.34;100064.16;5034303;28;20690;-51
2023/07/20 03:54:44;;;;;;;0.40;0.20;;;;;;;14.76;94.55;100066.91;5034282;28;20452;-51
2023/07/20 03:57:10;;;;;;;0.47;0.20;;;;;;;14.74;94.47;100062.59;5028882;28;20497;-50
2023/07/20 03:59:37;;;;;;;0.50;0.20;;;;;;;14.82;94.30;100061.28;5034263;28;20509;-50
2023/07/20 04:02:05;;;;;;;0.50;0.20;;;;;;;14.98;94.50;100065.84;5016301;28;20952;-51
2023/07/20 04:04:32;;;;;;;0.50;0.20;;;;;;;14.91;94.69;100059.94;5034055;28;20455;-50
2023/07/20 04:06:58;;;;;;;0.40;0.20;;;;;;;14.89;94.92;100067.16;5033254;28;20527;-50
2023/07/20 04:09:25;;;;;;;0.40;0.20;;;;;;;14.87;94.94;100055.69;5034072;28;21032;-50
2023/07/20 04:11:51;;;;;;;0.50;0.20;;;;;;;14.95;94.34;100061.53;5034194;28;20458;-50
2023/07/20 04:14:18;;;;;;;0.50;0.20;;;;;;;14.99;94.48;100067.59;5034153;28;20451;-50
2023/07/20 04:16:46;;;;;;;0.50;0.20;;;;;;;14.94;94.86;100074.97;5033754;28;20495;-51
2023/07/20 04:19:14;;;;;;;0.50;0.20;;;;;;;15.03;95.15;100070.03;5033857;28;20471;-51
2023/07/20 04:21:41;;;;;;;0.43;0.20;;;;;;;15.18;94.61;100079.09;5034030;28;20455;-51
2023/07/20 04:24:07;;;;;;;0.40;0.20;;;;;;;15.15;94.89;100070.34;5033776;28;20957;-51
2023/07/20 04:26:35;;;;;;;0.40;0.20;;;;;;;15.29;94.55;100068.69;5028556;28;20867;-51
2023/07/20 04:29:01;;;;;;;0.40;0.20;;;;;;;15.39;94.08;100071.78;5027340;28;20984;-50
2023/07/20 04:31:28;;;;;;;0.40;0.20;;;;;;;15.46;93.81;100083.03;5033741;28;20894;-51
2023/07/20 04:33:54;;;;;;;0.50;0.20;;;;;;;15.52;94.02;100080.03;5033399;28;20887;-51
2023/07/20 04:36:21;;;;;;;0.40;0.20;;;;;;;15.56;93.83;100090.50;5033739;28;20531;-50
2023/07/20 04:38:48;;;;;;;0.40;0.20;;;;;;;15.60;93.53;100081.38;5033374;28;20444;-51
2023/07/20 04:41:15;;;;;;;0.40;0.20;;;;;;;15.62;93.38;100086.66;5016099;28;20595;-50
2023/07/20 04:43:43;;;;;;;0.40;0.20;;;;;;;15.89;92.35;100089.69;5027204;28;20506;-51
2023/07/20 04:46:12;;;;;;;0.40;0.20;;;;;;;16.61;90.01;100086.59;5004702;28;20834;-51
2023/07/20 04:48:40;;;;;;;0.40;0.20;;;;;;;17.12;87.56;100087.25;5033309;28;20448;-50
2023/07/20 04:51:07;;;;;;;0.40;0.20;;;;;;;18.15;84.71;100080.06;5033706;28;20456;-50
2023/07/20 04:53:33;;;;;;;0.40;0.20;;;;;;;18.41;82.00;100080.25;5033454;28;20483;-51
2023/07/20 04:56:00;;;;;;;0.50;0.20;;;;;;;19.07;79.26;100084.91;5032545;28;20868;-51
2023/07/20 04:58:26;;;;;;;0.50;0.20;;;;;;;19.47;77.52;100078.53;5028172;28;20543;-51
2023/07/20 05:00:53;;;;;;;0.50;0.20;;;;;;;19.87;76.44;100081.16;5033156;28;20478;-51
2023/07/20 05:03:19;;;;;;;0.50;0.20;;;;;;;20.46;73.96;100086.00;5032904;28;20805;-51
2023/07/20 05:05:48;;;;;;;0.50;0.20;;;;;;;20.27;73.81;100078.31;5033399;28;20439;-51
2023/07/20 05:08:16;;;;;;;0.50;0.20;;;;;;;20.97;70.94;100082.16;5032716;28;20482;-51
2023/07/20 05:10:43;;;;;;;1.07;0.90;;;;;;;20.94;70.69;100082.38;5032916;28;20976;-51
2023/07/20 05:13:09;;;;;;;0.50;0.20;;;;;;;21.18;69.38;100081.50;5032809;28;20513;-51
2023/07/20 05:15:35;;;;;;;0.50;0.20;;;;;;;20.97;70.17;100087.56;5032702;28;20529;-51
2023/07/20 05:18:02;;;;;;;0.50;0.20;;;;;;;20.96;69.67;100079.53;5032064;28;20480;-51
2023/07/20 05:20:29;;;;;;;0.50;0.20;;;;;;;20.84;70.37;100075.09;5032816;28;20471;-52
2023/07/20 05:22:55;;;;;;;0.50;0.20;;;;;;;21.08;70.25;100081.31;5032616;28;20768;-51
2023/07/20 05:25:22;;;;;;;0.50;0.20;;;;;;;21.19;69.36;100088.63;5032866;28;20444;-51
2023/07/20 05:27:50;;;;;;;0.50;0.20;;;;;;;21.25;69.12;100091.78;5019904;28;20460;-51
2023/07/20 05:30:17;;;;;;;0.50;0.20;;;;;;;21.09;69.29;100093.00;5032471;28;20471;-51
2023/07/20 05:32:45;;;;;;;0.50;0.20;;;;;;;21.17;69.58;100087.88;5032437;28;21010;-50
2023/07/20 05:35:12;;;;;;;0.50;0.20;;;;;;;21.29;69.14;100084.28;5032641;28;20447;-51
2023/07/20 05:37:38;;;;;;;0.50;0.20;;;;;;;21.53;68.57;100085.13;5032618;28;20448;-51
2023/07/20 05:40:07;;;;;;;0.50;0.20;;;;;;;21.83;67.69;100083.69;5024313;28;20553;-51
2023/07/20 05:42:34;;;;;;;0.50;0.20;;;;;;;22.02;67.38;100093.94;5016877;28;20502;-51
2023/07/20 05:45:00;;;;;;;0.50;0.20;;;;;;;22.09;66.79;100082.53;5023238;28;20555;-51
2023/07/20 05:47:27;;;;;;;0.50;0.20;;;;;;;21.89;67.73;100096.75;5030441;28;20463;-51
2023/07/20 05:49:59;;;;;;;0.50;0.20;;;;;;;22.09;66.50;100103.34;5032311;28;20554;-51
2023/07/20 05:52:26;;;;;;;0.50;0.20;;;;;;;22.46;64.10;100098.50;5032150;28;20498;-51
2023/07/20 05:54:52;;;;;;;0.50;0.23;;;;;;;22.49;63.90;100100.13;5014812;28;20490;-51
2023/07/20 05:57:18;;;;;;;0.50;0.20;;;;;;;23.20;61.63;100098.78;5025848;28;20586;-51
2023/07/20 05:59:45;;;;;;;0.50;0.50;;;;;;;23.30;61.06;100097.88;5032431;28;20505;-52
2023/07/20 06:02:11;;;;;;;0.50;0.20;;;;;;;22.82;62.15;100101.94;5032297;28;21052;-51
2023/07/20 06:04:39;;;;;;;0.50;0.20;;;;;;;23.28;60.89;100094.41;5032340;28;20582;-52
2023/07/20 06:07:07;;;;;;;0.50;0.20;;;;;;;23.28;60.61;100109.81;5032252;28;20502;-51
2023/07/20 06:09:34;;;;;;;0.50;0.20;;;;;;;23.19;60.93;100114.19;5032118;28;20472;-51
2023/07/20 06:12:00;;;;;;;0.50;0.20;;;;;;;23.04;61.85;100110.03;5031986;28;20497;-51
2023/07/20 06:14:27;;;;;;;0.50;0.30;;;;;;;23.15;61.54;100107.28;5032393;28;20535;-51
2023/07/20 06:16:53;;;;;;;0.50;0.20;;;;;;;22.83;61.93;100107.25;5032103;28;20582;-51
2023/07/20 06:19:20;;;;;;;0.50;0.20;;;;;;;22.94;61.83;100109.94;5032106;28;20521;-51
2023/07/20 06:21:46;;;;;;;0.50;0.20;;;;;;;23.03;61.98;100100.19;5031808;28;20447;-51
2023/07/20 06:24:12;;;;;;;0.50;0.20;;;;;;;23.26;61.47;100103.66;5032034;28;20498;-51
2023/07/20 06:26:40;;;;;;;0.50;0.20;;;;;;;23.26;61.03;100109.09;5025778;28;20539;-51
2023/07/20 06:29:06;;;;;;;0.50;0.20;;;;;;;23.30;60.69;100111.44;5025386;28;20518;-51
2023/07/20 06:31:34;;;;;;;0.57;0.50;;;;;;;23.69;60.44;100106.31;5036092;28;20831;-51
2023/07/20 06:34:00;;;;;;;0.50;0.20;;;;;;;23.68;59.57;100106.47;5036005;28;20451;-52
2023/07/20 06:36:27;;;;;;;0.50;0.20;;;;;;;24.00;58.19;100098.25;5035897;28;20869;-52
2023/07/20 06:38:54;;;;;;;0.50;0.20;;;;;;;23.50;59.74;100107.00;5035433;28;20890;-51
2023/07/20 06:41:24;;;;;;;0.50;0.20;;;;;;;23.77;59.68;100111.97;5017260;28;20475;-51
2023/07/20 06:43:57;;;;;;;0.50;0.20;;;;;;;23.90;58.43;100109.91;5030964;28;20564;-51
2023/07/20 06:46:26;;;;;;;0.50;0.30;;;;;;;23.53;59.95;100106.75;5025043;28;20448;-51
2023/07/20 06:48:54;;;;;;;0.50;0.20;;;;;;;23.73;59.41;100106.94;5035300;28;20479;-51
2023/07/20 06:51:24;;;;;;;0.50;0.20;;;;;;;23.58;59.60;100101.84;5035526;28;20539;-51
2023/07/20 06:53:51;;;;;;;0.50;0.20;;;;;;;23.76;59.38;100106.66;5035181;28;20448;-51
2023/07/20 06:56:17;;;;;;;0.50;0.20;;;;;;;23.67;59.39;100102.88;5032339;28;20579;-51
2023/07/20 06:58:47;;;;;;;0.50;0.20;;;;;;;23.79;59.27;100104.53;5032408;28;20456;-51
2023/07/20 07:01:13;;;;;;;0.50;0.20;;;;;;;24.08;58.27;100112.88;5035153;28;20824;-52
2023/07/20 07:03:40;;;;;;;0.50;0.20;;;;;;;23.78;58.66;100110.97;5034959;28;20456;-51
2023/07/20 07:06:07;;;;;;;0.50;0.20;;;;;;;24.06;59.10;100123.00;5035071;28;20450;-51
2023/07/20 07:08:33;;;;;;;0.50;0.20;;;;;;;23.70;58.45;100115.31;5035260;28;20463;-51
2023/07/20 07:11:00;;;;;;;0.50;0.20;;;;;;;23.96;59.24;100119.38;5035271;28;20475;-51
2023/07/20 07:13:26;;;;;;;0.50;0.20;;;;;;;23.98;58.27;100121.94;5034869;28;20538;-51
2023/07/20 07:15:53;;;;;;;0.50;0.20;;;;;;;23.69;58.82;100111.75;5034985;28;20570;-52
2023/07/20 07:18:20;;;;;;;0.50;0.20;;;;;;;23.77;59.37;100122.81;5034825;28;20455;-51
2023/07/20 07:20:53;;;;;;;0.50;0.20;;;;;;;23.67;58.61;100115.59;5035041;28;20482;-51
2023/07/20 07:23:20;;;;;;;0.50;0.20;;;;;;;23.41;60.37;100112.34;5034678;28;20798;-51
2023/07/20 07:25:47;;;;;;;0.50;0.20;;;;;;;23.90;58.01;100115.34;5034864;28;20474;-51
2023/07/20 07:28:14;;;;;;;0.50;0.20;;;;;;;23.56;59.13;100111.03;5022267;28;20483;-51
2023/07/20 07:30:41;;;;;;;0.50;0.20;;;;;;;24.20;57.87;100111.78;5034672;28;20513;-52
2023/07/20 07:33:08;;;;;;;0.50;0.30;;;;;;;24.35;56.86;100108.75;5034554;28;20430;-52
2023/07/20 07:35:35;;;;;;;0.50;0.20;;;;;;;23.62;58.24;100105.16;5021716;28;20511;-51
2023/07/20 07:38:01;;;;;;;0.50;0.20;;;;;;;24.23;57.67;100105.22;5034644;28;20616;-51
2023/07/20 07:40:39;;;;;;;0.50;0.20;;;;;;;24.40;55.77;100101.91;5021321;28;20476;-52
2023/07/20 07:43:05;;;;;;;0.50;0.23;;;;;;;24.68;55.26;100105.72;5005404;28;20513;-52
2023/07/20 07:45:38;;;;;;;0.50;0.30;;;;;;;24.81;55.61;100110.91;5022995;28;20864;-52
2023/07/20 07:48:05;;;;;;;0.50;0.20;;;;;;;24.33;55.08;100108.88;5034399;28;20797;-51
2023/07/20 07:50:33;;;;;;;0.50;0.20;;;;;;;23.71;56.88;100108.91;5034361;28;20999;-52
2023/07/20 07:53:00;;;;;;;0.50;0.20;;;;;;;23.84;58.79;100113.13;5034525;28;20968;-51
2023/07/20 07:55:26;;;;;;;0.50;0.20;;;;;;;24.58;55.73;100109.41;5034202;28;20451;-52
2023/07/20 07:57:53;;;;;;;0.50;0.20;;;;;;;24.36;55.56;100105.88;5028933;28;20570;-51
2023/07/20 08:00:19;;;;;;;0.50;0.30;;;;;;;24.50;54.11;100108.22;5034176;28;20507;-51
2023/07/20 08:02:47;;;;;;;0.50;0.20;;;;;;;24.15;56.41;100105.91;5034458;28;20451;-51
2023/07/20 08:05:14;;;;;;;0.50;0.30;;;;;;;24.06;56.89;100120.28;5034036;28;20456;-51
2023/07/20 08:07:41;;;;;;;0.50;0.20;;;;;;;23.93;57.04;100115.06;5034335;28;20443;-51
2023/07/20 08:10:08;;;;;;;0.50;0.23;;;;;;;23.93;55.71;100117.78;5034143;28;20471;-51
2023/07/20 08:12:35;;;;;;;0.50;0.20;;;;;;;24.27;56.43;100112.13;5034196;28;20562;-51
2023/07/20 08:15:01;;;;;;;0.50;0.20;;;;;;;24.47;54.87;100105.78;5034264;28;20451;-52
2023/07/20 08:17:28;;;;;;;0.50;0.20;;;;;;;24.80;54.34;100115.47;5034268;28;20499;-52
2023/07/20 08:19:55;;;;;;;0.50;0.20;;;;;;;24.51;54.22;100112.66;5033800;28;20835;-51
2023/07/20 08:22:21;;;;;;;0.50;0.30;;;;;;;24.69;54.77;100112.03;5034155;28;20527;-51
2023/07/20 08:24:48;;;;;;;0.63;0.63;;;;;;;24.26;56.44;100121.28;5034023;28;20451;-51
2023/07/20 08:27:14;;;;;;;0.50;0.20;;;;;;;23.98;56.10;100121.94;5023101;28;20512;-51
2023/07/20 08:29:41;;;;;;;0.50;0.30;;;;;;;24.16;55.88;100115.78;5033182;28;20514;-51
2023/07/20 08:32:08;;;;;;;0.50;0.30;;;;;;;23.74;56.13;100114.94;5033952;28;20540;-52
2023/07/20 08:34:34;;;;;;;0.50;0.20;;;;;;;24.18;54.93;100116.50;5033641;28;20542;-51
2023/07/20 08:37:01;;;;;;;0.50;0.20;;;;;;;23.99;55.82;100110.13;5033787;28;21045;-52
2023/07/20 08:39:27;;;;;;;0.50;0.20;;;;;;;23.99;57.67;100107.41;5049924;23;20509;-51
2023/07/20 08:41:55;;;;;;;0.50;0.20;;;;;;;23.97;56.76;100110.22;5061070;28;20443;-51
2023/07/20 08:44:23;;;;;;;0.50;0.30;;;;;;;23.81;57.62;100107.13;5059557;28;20849;-51
2023/07/20 08:46:52;;;;;;;0.50;0.20;;;;;;;23.35;58.93;100103.75;5073744;28;20817;-51
2023/07/20 08:49:19;;;;;;;0.50;0.20;;;;;;;23.69;57.70;100108.19;5060250;28;20869;-51
2023/07/20 08:51:46;;;;;;;0.50;0.20;;;;;;;23.05;59.60;100103.63;5059978;28;20537;-51
2023/07/20 08:54:13;;;;;;;0.50;0.30;;;;;;;23.14;58.79;100102.84;5066110;28;20450;-51
2023/07/20 08:56:41;;;;;;;0.50;0.20;;;;;;;23.05;60.68;100106.34;5055485;28;20545;-51
2023/07/20 08:59:08;;;;;;;0.50;0.20;;;;;;;22.95;60.19;100097.25;5060959;28;20519;-51
2023/07/20 09:01:38;;;;;;;0.50;0.20;;;;;;;22.94;60.21;100107.22;5060058;28;20450;-51
2023/07/20 09:04:06;;;;;;;0.50;0.20;;;;;;;23.08;59.80;100097.09;5065120;28;20927;-51
2023/07/20 09:06:34;;;;;;;0.50;0.20;;;;;;;22.94;60.65;100098.22;5066478;28;20576;-51
2023/07/20 09:09:01;;;;;;;0.50;0.20;;;;;;;23.30;60.92;100095.16;5061916;28;20498;-51
2023/07/20 09:11:28;;;;;;;0.50;0.20;;;;;;;23.69;58.62;100087.31;5059713;28;20478;-51
2023/07/20 09:14:06;;;;;;;0.50;0.20;;;;;;;22.99;59.68;100096.84;5063972;28;20450;-51
2023/07/20 09:16:46;;;;;;;0.50;0.20;;;;;;;23.21;59.40;100089.63;5066201;28;20482;-51
2023/07/20 09:19:14;;;;;;;0.50;0.20;;;;;;;23.25;60.20;100094.66;5065794;28;20524;-51
2023/07/20 09:21:44;;;;;;;0.50;0.20;;;;;;;23.57;59.77;100086.56;5066826;28;20482;-51
2023/07/20 09:24:11;;;;;;;0.50;0.20;;;;;;;23.35;57.81;100092.03;5066084;28;21019;-51
2023/07/20 09:26:42;;;;;;;0.50;0.20;;;;;;;23.55;58.23;100093.91;5048227;28;21015;-51
2023/07/20 09:29:12;;;;;;;0.50;0.20;;;;;;;23.68;56.19;100098.31;5048451;28;20478;-50
2023/07/20 09:31:40;;;;;;;0.50;0.20;;;;;;;23.73;56.67;100096.94;5064654;28;20497;-51
2023/07/20 09:34:07;;;;;;;0.50;0.20;;;;;;;23.83;56.84;100092.41;5065950;28;20450;-51
2023/07/20 09:36:36;;;;;;;0.50;0.20;;;;;;;23.66;56.64;100095.75;5061978;28;20562;-51
2023/07/20 09:39:05;;;;;;;0.50;0.20;;;;;;;23.94;55.69;100096.91;5059090;28;20518;-51
2023/07/20 09:41:42;;;;;;;0.50;0.20;;;;;;;23.80;56.50;100092.69;5042101;28;20483;-51
2023/07/20 09:44:10;;;;;;;0.50;0.20;;;;;;;23.65;56.53;100088.59;5063356;28;20983;-51
2023/07/20 09:46:45;;;;;;;0.50;0.20;;;;;;;23.81;56.79;100088.97;5043877;28;20532;-51
2023/07/20 09:49:17;;;;;;;0.50;0.20;;;;;;;24.32;55.90;100090.00;5066263;28;20533;-51
2023/07/20 09:51:47;;;;;;;0.50;0.20;;;;;;;24.35;53.91;100082.44;5064850;28;20524;-51
2023/07/20 09:54:13;;;;;;;0.50;0.20;;;;;;;24.53;53.13;100082.63;5046354;28;20461;-51
2023/07/20 09:56:40;;;;;;;0.50;0.20;;;;;;;24.49;52.08;100079.34;5058518;28;21018;-51
2023/07/20 09:59:07;;;;;;;0.50;0.20;;;;;;;24.81;52.54;100086.44;5064974;28;20955;-51
2023/07/20 10:01:34;;;;;;;0.50;0.20;;;;;;;24.91;51.71;100079.16;5065787;28;21045;-50
2023/07/20 10:04:04;;;;;;;0.50;0.20;;;;;;;24.33;51.20;100072.69;5059006;28;20457;-51
2023/07/20 10:06:32;;;;;;;0.50;0.20;;;;;;;24.61;50.84;100071.94;5058755;28;20431;-51
2023/07/20 10:09:03;;;;;;;0.50;0.20;;;;;;;25.17;48.50;100075.91;5064302;28;20425;-51
2023/07/20 10:11:34;;;;;;;0.50;0.30;;;;;;;25.21;48.23;100066.47;5065259;28;20850;-51
2023/07/20 10:14:06;;;;;;;0.50;0.20;;;;;;;24.88;47.97;100062.25;5061735;28;20452;-51
2023/07/20 10:16:36;;;;;;;0.50;0.20;;;;;;;24.93;48.46;100066.25;5058577;28;20445;-51
2023/07/20 10:19:07;;;;;;;0.50;0.30;;;;;;;24.83;51.52;100062.69;5061657;28;20446;-51
2023/07/20 10:21:42;;;;;;;0.50;0.30;;;;;;;25.46;50.16;100067.75;5065610;28;20533;-51
2023/07/20 10:24:11;;;;;;;0.50;0.20;;;;;;;25.68;48.87;100060.16;5064424;28;20537;-51
2023/07/20 10:26:38;;;;;;;0.50;0.30;;;;;;;25.59;49.00;100065.59;5058551;28;20445;-51
2023/07/20 10:29:08;;;;;;;0.50;0.20;;;;;;;25.52;49.44;100068.03;5058793;28;20447;-51
2023/07/20 10:31:37;;;;;;;0.50;0.20;;;;;;;25.08;50.95;100062.19;5045158;28;20498;-51
2023/07/20 10:34:04;;;;;;;0.50;0.20;;;;;;;24.60;51.99;100058.47;5058613;28;20450;-51
2023/07/20 10:36:31;;;;;;;0.50;0.20;;;;;;;24.51;51.43;100052.00;5064537;28;20485;-50
2023/07/20 10:38:58;;;;;;;0.50;0.20;;;;;;;25.14;49.45;100043.56;5053501;28;20442;-50
2023/07/20 10:41:35;;;;;;;0.50;0.30;;;;;;;24.66;49.02;100047.91;5042181;28;20471;-51
2023/07/20 10:44:09;;;;;;;0.60;0.40;;;;;;;24.52;50.00;100043.72;5063883;28;20446;-51
2023/07/20 10:46:38;;;;;;;0.50;0.20;;;;;;;24.45;51.38;100039.00;5053755;28;20445;-51
2023/07/20 10:49:07;;;;;;;0.50;0.20;;;;;;;24.67;51.10;100048.75;5058171;28;20934;-51
2023/07/20 10:51:45;;;;;;;0.50;0.20;;;;;;;24.43;51.01;100033.69;5060235;28;21016;-51
2023/07/20 10:54:17;;;;;;;0.50;0.20;;;;;;;24.94;50.65;100039.94;5065197;28;20538;-51
2023/07/20 10:56:47;;;;;;;0.50;0.20;;;;;;;24.64;50.95;100038.16;5053253;28;20501;-51
2023/07/20 10:59:40;;;;;;;0.50;0.20;;;;;;;24.79;51.47;100034.03;5059810;28;20481;-51
2023/07/20 11:02:08;;;;;;;0.50;0.20;;;;;;;25.17;49.15;100037.81;5058215;28;20525;-51
2023/07/20 11:04:45;;;;;;;0.50;0.20;;;;;;;25.48;48.52;100042.09;5059695;28;20447;-51
2023/07/20 11:07:16;;;;;;;0.50;0.20;;;;;;;25.25;48.20;100036.13;5058547;28;20827;-51
2023/07/20 11:09:43;;;;;;;0.50;0.20;;;;;;;25.36;48.49;100026.94;5058106;28;20473;-51
2023/07/20 11:12:15;;;;;;;0.50;0.30;;;;;;;25.72;47.47;100032.63;5063404;28;20946;-51
2023/07/20 11:14:42;;;;;;;0.50;0.30;;;;;;;25.70;46.30;100024.63;5065071;28;20428;-51
2023/07/20 11:17:15;;;;;;;0.50;0.20;;;;;;;25.52;45.79;100020.91;5063546;28;20508;-51
2023/07/20 11:19:48;;;;;;;0.50;0.20;;;;;;;25.56;45.79;100028.63;5061915;28;20479;-51
2023/07/20 11:22:17;;;;;;;0.50;0.30;;;;;;;25.74;45.06;100028.75;5063889;28;20421;-51
2023/07/20 11:24:44;;;;;;;0.50;0.20;;;;;;;25.90;45.30;100023.53;5068697;28;20482;-51
2023/07/20 11:27:10;;;;;;;0.50;0.30;;;;;;;25.63;46.13;100021.59;5045317;28;20447;-51
2023/07/20 11:29:37;;;;;;;0.50;0.20;;;;;;;25.02;46.95;100021.06;5057089;28;20553;-51
2023/07/20 11:32:04;;;;;;;0.50;0.20;;;;;;;25.42;46.05;100018.19;5063649;28;20432;-51